Time;durP1;ratioP1;P1;durP2;ratioP2;P2;SDS_P1;SDS_P2;PMS_P1;PMS_P2;Temp;Humidity;BMP_temperature;BMP_pressure;BME280_temperature;BME280_humidity;BME280_pressure;Samples;Min_cycle;Max_cycle;Signal;HPM_P1;HPM_P2
2022/06/15 00:01:59;;;;;;;4.57;3.20;;;8.50;99.90;;;;;;5061810;28;20029;-70
2022/06/15 00:04:24;;;;;;;4.57;2.72;;;8.50;99.90;;;;;;5035864;28;20483;-73
2022/06/15 00:06:50;;;;;;;3.50;3.20;;;8.50;99.90;;;;;;5053776;28;20056;-74
2022/06/15 00:09:16;;;;;;;3.97;3.03;;;8.50;99.90;;;;;;5053903;28;20032;-73
2022/06/15 00:11:43;;;;;;;4.40;2.45;;;8.50;99.90;;;;;;5053993;28;20029;-70
2022/06/15 00:14:18;;;;;;;3.67;2.65;;;8.50;99.90;;;;;;5053594;28;20025;-74
2022/06/15 00:16:44;;;;;;;2.42;2.25;;;8.50;99.90;;;;;;5036027;28;20024;-70
2022/06/15 00:19:10;;;;;;;3.45;2.78;;;8.50;99.90;;;;;;5035785;28;20025;-70
2022/06/15 00:21:36;;;;;;;2.95;2.75;;;8.50;99.90;;;;;;5053823;28;20029;-71
2022/06/15 00:24:03;;;;;;;3.20;2.70;;;8.50;99.90;;;;;;5045466;28;20557;-74
2022/06/15 00:26:28;;;;;;;2.67;2.47;;;8.60;99.90;;;;;;5055642;28;20020;-74
2022/06/15 00:28:54;;;;;;;4.63;2.97;;;8.70;99.90;;;;;;5073614;28;20482;-71
2022/06/15 00:31:20;;;;;;;2.88;2.63;;;8.70;99.90;;;;;;5073520;28;20029;-70
2022/06/15 00:33:47;;;;;;;3.25;2.70;;;8.70;99.90;;;;;;5073319;28;20099;-71
2022/06/15 00:36:15;;;;;;;5.35;3.15;;;8.60;99.90;;;;;;5073435;28;20029;-73
2022/06/15 00:38:47;;;;;;;3.95;3.25;;;8.60;99.90;;;;;;5073459;28;20137;-74
2022/06/15 00:41:17;;;;;;;3.60;2.90;;;8.50;99.90;;;;;;5073367;28;20092;-74
2022/06/15 00:43:52;;;;;;;4.72;2.95;;;8.50;99.90;;;;;;5073145;28;20059;-70
2022/06/15 00:46:27;;;;;;;5.00;2.70;;;8.50;99.90;;;;;;5073218;28;20032;-74
2022/06/15 00:48:56;;;;;;;2.70;2.50;;;8.50;99.90;;;;;;5073254;28;20017;-74
2022/06/15 00:51:23;;;;;;;4.85;2.90;;;8.50;99.90;;;;;;5073247;28;20077;-74
2022/06/15 00:53:50;;;;;;;4.03;2.78;;;8.50;99.90;;;;;;5072974;28;20463;-74
2022/06/15 00:56:17;;;;;;;3.33;2.38;;;8.40;99.90;;;;;;5073080;28;20032;-70
2022/06/15 00:58:47;;;;;;;3.45;2.60;;;8.40;99.90;;;;;;5073107;28;20420;-71
2022/06/15 01:01:13;;;;;;;2.88;2.50;;;8.40;99.90;;;;;;5066967;28;20028;-74
2022/06/15 01:03:39;;;;;;;3.33;3.03;;;8.40;99.90;;;;;;5052789;28;20047;-74
2022/06/15 01:06:34;;;;;;;3.10;2.72;;;8.40;99.90;;;;;;5052968;28;20096;-74
2022/06/15 01:09:02;;;;;;;3.65;3.30;;;8.40;99.90;;;;;;5018201;28;20037;-73
2022/06/15 01:11:37;;;;;;;3.60;2.90;;;8.50;99.90;;;;;;5035281;28;20375;-74
2022/06/15 01:14:11;;;;;;;5.20;3.88;;;8.50;99.90;;;;;;5034884;28;20070;-74
2022/06/15 01:17:06;;;;;;;3.58;3.28;;;8.50;99.90;;;;;;5035119;28;20501;-70
2022/06/15 01:20:17;;;;;;;3.00;2.80;;;8.50;99.90;;;;;;5035018;28;20393;-74
2022/06/15 01:23:27;;;;;;;6.40;3.53;;;8.60;99.90;;;;;;5052880;28;20025;-74
2022/06/15 01:26:30;;;;;;;4.05;3.08;;;8.60;99.90;;;;;;5024733;28;20533;-71
2022/06/15 01:29:24;;;;;;;8.70;3.33;;;8.70;99.90;;;;;;5052867;28;20510;-74
2022/06/15 01:32:01;;;;;;;5.25;3.25;;;8.80;99.90;;;;;;5034953;28;20439;-70
2022/06/15 01:34:55;;;;;;;3.78;3.28;;;8.70;99.90;;;;;;5052560;28;20028;-74
2022/06/15 01:37:27;;;;;;;6.15;3.90;;;8.70;99.90;;;;;;5052828;28;20376;-74
2022/06/15 01:40:02;;;;;;;7.85;3.83;;;8.70;99.90;;;;;;5052766;28;20025;-70
2022/06/15 01:42:41;;;;;;;8.13;4.18;;;8.70;99.90;;;;;;5052689;28;20099;-74
2022/06/15 01:45:11;;;;;;;10.68;4.70;;;8.60;99.90;;;;;;5052561;28;20151;-71
2022/06/15 01:47:39;;;;;;;4.90;4.20;;;8.60;99.90;;;;;;5052656;28;20017;-70
2022/06/15 01:50:11;;;;;;;4.75;4.35;;;8.60;99.90;;;;;;5051138;28;20021;-73
2022/06/15 01:52:46;;;;;;;6.35;4.10;;;8.60;99.90;;;;;;5052748;28;20052;-70
2022/06/15 01:55:25;;;;;;;8.52;3.92;;;8.60;99.90;;;;;;5052542;28;20053;-70
2022/06/15 01:57:55;;;;;;;4.30;3.90;;;8.70;99.90;;;;;;5052530;28;20025;-74
2022/06/15 02:00:22;;;;;;;4.72;4.10;;;8.70;99.90;;;;;;5052313;28;20028;-74
2022/06/15 02:02:47;;;;;;;7.43;5.05;;;8.70;99.90;;;;;;5072079;28;20013;-70
2022/06/15 02:05:19;;;;;;;7.03;4.68;;;8.80;99.90;;;;;;5072145;28;20131;-74
2022/06/15 02:08:16;;;;;;;5.80;4.88;;;8.80;99.90;;;;;;5054568;28;20497;-74
2022/06/15 02:11:05;;;;;;;7.43;4.60;;;8.80;99.90;;;;;;5054451;28;20025;-74
2022/06/15 02:13:33;;;;;;;6.38;4.35;;;8.90;99.90;;;;;;5072532;28;20017;-70
2022/06/15 02:16:12;;;;;;;7.05;4.38;;;8.90;99.90;;;;;;5072374;28;20525;-70
2022/06/15 02:18:39;;;;;;;8.63;5.82;;;8.90;99.90;;;;;;5072394;28;20412;-73
2022/06/15 02:21:13;;;;;;;4.72;3.60;;;8.90;99.90;;;;;;5054365;28;20112;-70
2022/06/15 02:23:42;;;;;;;4.93;4.10;;;8.80;99.90;;;;;;5068458;28;20033;-74
2022/06/15 02:26:09;;;;;;;4.00;3.50;;;8.80;99.90;;;;;;5055862;28;20036;-73
2022/06/15 02:28:47;;;;;;;4.95;3.83;;;8.80;99.90;;;;;;5055931;28;20057;-74
2022/06/15 02:31:13;;;;;;;5.25;3.75;;;8.80;99.90;;;;;;5055814;28;20020;-74
2022/06/15 02:33:47;;;;;;;8.38;4.30;;;8.80;99.90;;;;;;5055635;28;20060;-71
2022/06/15 02:36:13;;;;;;;4.85;3.78;;;8.90;99.90;;;;;;5055762;28;20017;-70
2022/06/15 02:38:39;;;;;;;6.50;4.85;;;9.00;99.90;;;;;;5055716;28;20025;-71
2022/06/15 02:41:05;;;;;;;5.85;4.88;;;9.00;99.90;;;;;;5055608;28;20532;-70
2022/06/15 02:43:32;;;;;;;8.68;4.47;;;9.00;99.90;;;;;;5055649;28;20032;-74
2022/06/15 02:46:01;;;;;;;5.97;4.60;;;9.00;99.90;;;;;;5055384;28;20025;-70
2022/06/15 02:48:26;;;;;;;6.55;4.53;;;9.10;99.90;;;;;;5055550;28;20474;-70
2022/06/15 02:51:27;;;;;;;6.65;4.20;;;9.10;99.90;;;;;;5055379;28;20039;-74
2022/06/15 02:53:57;;;;;;;5.90;4.35;;;9.20;99.90;;;;;;5020451;28;20036;-70
2022/06/15 02:56:23;;;;;;;5.95;4.32;;;9.20;99.90;;;;;;5055335;28;20025;-74
2022/06/15 02:58:53;;;;;;;4.78;4.22;;;9.20;99.90;;;;;;5037410;28;20025;-74
2022/06/15 03:01:20;;;;;;;6.30;4.40;;;9.20;99.90;;;;;;5062740;28;20024;-70
2022/06/15 03:03:47;;;;;;;5.68;3.90;;;9.20;99.90;;;;;;5074988;28;20111;-70
2022/06/15 03:06:16;;;;;;;6.38;4.50;;;9.20;99.90;;;;;;5075020;28;20040;-73
2022/06/15 03:08:42;;;;;;;4.63;3.88;;;9.20;99.90;;;;;;5075085;28;20020;-70
2022/06/15 03:11:08;;;;;;;7.47;4.75;;;9.20;99.90;;;;;;5057068;28;20020;-74
2022/06/15 03:13:34;;;;;;;6.05;4.90;;;9.10;99.90;;;;;;5057141;28;20028;-74
2022/06/15 03:16:01;;;;;;;7.82;5.13;;;9.20;99.90;;;;;;5074807;28;20032;-70
2022/06/15 03:18:28;;;;;;;7.47;5.25;;;9.20;99.90;;;;;;5074942;28;20016;-74
2022/06/15 03:21:00;;;;;;;6.38;4.82;;;9.20;99.90;;;;;;5074889;28;20040;-73
2022/06/15 03:23:27;;;;;;;6.03;4.60;;;9.20;99.90;;;;;;5069124;28;20063;-70
2022/06/15 03:25:57;;;;;;;6.63;4.93;;;9.30;99.90;;;;;;5054701;28;20024;-74
2022/06/15 03:28:23;;;;;;;6.50;4.63;;;9.30;99.90;;;;;;5054679;28;20112;-70
2022/06/15 03:30:50;;;;;;;7.93;4.50;;;9.40;99.90;;;;;;5054612;28;20151;-74
2022/06/15 03:33:15;;;;;;;8.02;5.85;;;9.40;99.90;;;;;;5053527;28;20536;-74
2022/06/15 03:35:42;;;;;;;8.02;5.13;;;9.50;99.90;;;;;;5054426;28;20024;-70
2022/06/15 03:38:09;;;;;;;8.13;5.05;;;9.60;99.90;;;;;;5036721;28;20423;-70
2022/06/15 03:40:46;;;;;;;6.97;5.05;;;9.70;99.90;;;;;;5054552;28;20040;-70
2022/06/15 03:43:13;;;;;;;6.82;4.82;;;9.70;99.90;;;;;;5054482;28;20104;-74
2022/06/15 03:45:42;;;;;;;9.32;5.13;;;9.80;99.90;;;;;;5036408;28;20029;-70
2022/06/15 03:48:07;;;;;;;9.02;5.47;;;9.90;99.90;;;;;;5054408;28;20025;-74
2022/06/15 03:50:34;;;;;;;6.15;4.88;;;10.00;99.90;;;;;;5054360;28;20032;-74
2022/06/15 03:53:01;;;;;;;8.23;5.25;;;10.00;99.90;;;;;;5054335;28;20025;-70
2022/06/15 03:55:31;;;;;;;10.27;5.63;;;10.00;99.90;;;;;;5036289;28;20036;-70
2022/06/15 03:57:57;;;;;;;8.00;5.80;;;10.10;99.90;;;;;;5054230;28;20421;-74
2022/06/15 04:00:24;;;;;;;9.57;6.20;;;10.20;99.90;;;;;;5036361;28;20021;-69
2022/06/15 04:02:52;;;;;;;9.63;5.95;;;10.20;99.90;;;;;;5074014;28;20029;-70
2022/06/15 04:05:21;;;;;;;10.43;6.10;;;10.30;99.90;;;;;;5073622;28;20052;-70
2022/06/15 04:10:33;;;;;;;9.85;6.38;;;10.60;99.90;;;;;;5074221;28;20102;-74
2022/06/15 04:12:59;;;;;;;9.50;5.90;;;10.70;99.90;;;;;;5073939;28;20028;-70
2022/06/15 04:15:24;;;;;;;7.85;5.88;;;10.70;99.90;;;;;;5073726;28;20070;-74
2022/06/15 04:17:50;;;;;;;9.35;6.40;;;10.70;99.90;;;;;;5073913;28;20033;-74
2022/06/15 04:20:32;;;;;;;9.40;5.90;;;10.80;99.90;;;;;;5073537;28;20494;-74
2022/06/15 04:23:03;;;;;;;8.23;5.28;;;10.90;99.90;;;;;;5071256;28;20081;-70
2022/06/15 04:25:30;;;;;;;10.70;6.30;;;11.00;99.90;;;;;;5053573;28;20045;-70
2022/06/15 04:27:57;;;;;;;10.18;6.07;;;11.10;99.90;;;;;;5053652;28;20017;-74
2022/06/15 04:30:23;;;;;;;10.38;6.95;;;11.10;99.90;;;;;;5035449;28;20067;-74
2022/06/15 04:32:48;;;;;;;10.00;6.90;;;11.20;99.90;;;;;;5053580;28;20116;-70
2022/06/15 04:35:15;;;;;;;10.60;6.65;;;11.20;99.90;;;;;;5053455;28;20486;-70
2022/06/15 04:37:41;;;;;;;9.50;6.45;;;11.20;99.90;;;;;;5053373;28;20013;-71
2022/06/15 04:40:08;;;;;;;8.88;5.75;;;11.20;99.90;;;;;;5035490;28;20040;-70
2022/06/15 04:42:35;;;;;;;8.48;6.13;;;11.30;99.90;;;;;;5053390;28;20155;-74
2022/06/15 04:45:01;;;;;;;9.35;7.88;;;11.40;99.90;;;;;;5052906;28;20048;-73
2022/06/15 04:47:27;;;;;;;12.68;7.72;;;11.30;99.90;;;;;;5035543;28;20017;-74
2022/06/15 04:49:52;;;;;;;7.82;6.88;;;11.30;99.90;;;;;;5053223;28;20024;-74
2022/06/15 04:52:18;;;;;;;13.43;6.20;;;11.50;99.90;;;;;;5053040;28;20124;-74
2022/06/15 04:54:44;;;;;;;8.57;5.45;;;11.70;99.90;;;;;;5053192;28;20053;-70
2022/06/15 04:57:09;;;;;;;13.82;6.45;;;11.90;99.90;;;;;;5053190;28;20036;-72
2022/06/15 04:59:35;;;;;;;11.40;5.68;;;12.10;99.90;;;;;;5053227;28;20025;-73
2022/06/15 05:02:01;;;;;;;12.88;6.32;;;12.40;99.90;;;;;;5049050;28;20025;-72
2022/06/15 05:04:26;;;;;;;5.78;5.10;;;12.60;99.90;;;;;;5072803;28;20040;-70
2022/06/15 05:06:52;;;;;;;8.60;5.10;;;12.90;99.90;;;;;;5073092;28;20567;-70
2022/06/15 05:09:18;;;;;;;12.48;6.00;;;13.20;99.90;;;;;;5073064;28;20098;-70
2022/06/15 05:11:44;;;;;;;5.68;4.60;;;13.50;99.90;;;;;;5088629;28;20389;-74
2022/06/15 05:14:10;;;;;;;8.25;5.38;;;13.70;97.00;;;;;;5067391;28;20028;-69
2022/06/15 05:16:36;;;;;;;7.18;4.40;;;13.80;94.30;;;;;;5069315;28;20039;-69
2022/06/15 05:19:02;;;;;;;7.40;5.00;;;13.90;96.60;;;;;;5071343;28;20032;-70
2022/06/15 05:21:28;;;;;;;15.60;6.30;;;14.00;99.30;;;;;;5053688;28;20028;-74
2022/06/15 05:23:54;;;;;;;10.50;4.38;;;14.10;97.00;;;;;;5047928;28;20055;-74
2022/06/15 05:26:24;;;;;;;6.18;4.57;;;14.20;94.50;;;;;;5070946;28;20490;-74
2022/06/15 05:28:51;;;;;;;11.38;4.95;;;14.20;87.40;;;;;;5053320;28;20044;-74
2022/06/15 05:31:20;;;;;;;10.45;4.57;;;14.30;83.50;;;;;;5071468;28;20025;-70
2022/06/15 05:33:47;;;;;;;8.98;5.07;;;14.30;80.50;;;;;;5071811;28;20043;-70
2022/06/15 05:36:16;;;;;;;8.65;5.43;;;14.40;76.10;;;;;;5071392;28;20458;-69
2022/06/15 05:38:42;;;;;;;10.15;5.00;;;14.50;78.00;;;;;;5053730;28;20094;-70
2022/06/15 05:41:08;;;;;;;8.98;5.07;;;14.70;78.90;;;;;;5071473;28;20099;-70
2022/06/15 05:43:36;;;;;;;9.10;5.40;;;14.90;80.20;;;;;;5069409;28;20028;-74
2022/06/15 05:46:23;;;;;;;8.10;4.45;;;15.00;81.00;;;;;;5062257;28;20021;-74
2022/06/15 05:48:49;;;;;;;10.15;4.50;;;15.10;76.20;;;;;;5054714;28;20029;-70
2022/06/15 05:51:15;;;;;;;8.30;4.10;;;15.20;74.50;;;;;;5067322;28;20068;-70
2022/06/15 05:53:40;;;;;;;10.02;4.65;;;15.30;73.80;;;;;;5052473;28;20108;-71
2022/06/15 05:56:06;;;;;;;10.30;4.53;;;15.50;73.70;;;;;;5034021;28;20032;-70
2022/06/15 05:58:32;;;;;;;8.55;4.97;;;15.60;73.20;;;;;;5049226;28;20575;-71
2022/06/15 06:01:05;;;;;;;8.20;4.25;;;15.70;74.70;;;;;;5088802;28;20025;-73
2022/06/15 06:03:31;;;;;;;7.55;4.60;;;15.80;71.70;;;;;;5075766;28;20515;-70
2022/06/15 06:05:57;;;;;;;7.25;3.85;;;15.90;69.80;;;;;;5074981;28;20076;-70
2022/06/15 06:08:22;;;;;;;6.15;3.47;;;15.90;68.50;;;;;;5057044;28;20086;-73
2022/06/15 06:10:48;;;;;;;11.80;4.65;;;16.10;68.10;;;;;;5059956;28;20040;-70
2022/06/15 06:13:13;;;;;;;12.07;4.63;;;16.30;66.40;;;;;;5055405;28;20025;-71
2022/06/15 06:15:39;;;;;;;10.00;4.13;;;16.50;69.90;;;;;;5055346;28;20040;-70
2022/06/15 06:18:05;;;;;;;5.60;3.40;;;16.40;66.70;;;;;;5055820;28;20024;-71
2022/06/15 06:20:30;;;;;;;6.57;3.72;;;16.40;67.00;;;;;;5056238;28;20364;-73
2022/06/15 06:22:56;;;;;;;5.35;3.75;;;16.30;65.20;;;;;;5058821;28;20024;-74
2022/06/15 06:25:22;;;;;;;6.97;3.60;;;16.30;66.20;;;;;;5075828;28;20063;-73
2022/06/15 06:27:47;;;;;;;6.20;3.38;;;16.40;66.60;;;;;;5075751;28;20078;-71
2022/06/15 06:30:14;;;;;;;11.68;4.22;;;16.40;65.70;;;;;;5074605;28;20099;-70
2022/06/15 06:32:39;;;;;;;3.72;2.20;;;16.40;66.90;;;;;;5057596;28;20024;-71
2022/06/15 06:35:07;;;;;;;5.00;2.20;;;16.50;60.60;;;;;;5075720;28;20036;-74
2022/06/15 06:37:35;;;;;;;3.05;1.92;;;16.60;59.20;;;;;;5057816;28;20028;-73
2022/06/15 06:40:01;;;;;;;4.00;1.90;;;16.60;57.70;;;;;;5057750;28;20118;-70
2022/06/15 06:42:27;;;;;;;3.28;1.40;;;16.80;57.80;;;;;;5075741;28;20026;-73
2022/06/15 06:44:52;;;;;;;4.07;1.77;;;16.80;55.90;;;;;;5075481;28;20029;-70
2022/06/15 06:47:18;;;;;;;3.05;1.55;;;16.70;54.40;;;;;;5057442;28;20020;-73
2022/06/15 06:49:44;;;;;;;8.07;2.30;;;16.90;55.70;;;;;;5075451;28;20474;-73
2022/06/15 06:52:09;;;;;;;2.55;1.83;;;16.70;56.80;;;;;;5075514;28;20020;-71
2022/06/15 06:54:35;;;;;;;3.55;1.67;;;16.70;56.90;;;;;;5075372;28;20021;-70
2022/06/15 06:57:01;;;;;;;3.53;1.73;;;16.60;55.60;;;;;;5057331;28;20021;-70
2022/06/15 06:59:27;;;;;;;7.60;2.15;;;16.70;55.10;;;;;;5075388;28;20028;-71
2022/06/15 07:01:52;;;;;;;2.72;1.55;;;16.80;56.20;;;;;;5061699;28;20079;-74
2022/06/15 07:04:19;;;;;;;3.45;1.95;;;16.80;55.30;;;;;;5055032;28;20441;-70
2022/06/15 07:06:46;;;;;;;4.57;2.20;;;16.70;55.90;;;;;;5055271;28;20049;-69
2022/06/15 07:09:11;;;;;;;5.38;1.70;;;16.80;57.50;;;;;;5054909;28;20372;-73
2022/06/15 07:11:39;;;;;;;9.70;1.60;;;16.80;56.90;;;;;;5055242;28;20032;-71
2022/06/15 07:14:05;;;;;;;4.75;1.77;;;16.80;56.90;;;;;;5054950;28;20171;-70
2022/06/15 07:16:31;;;;;;;5.07;2.28;;;16.60;56.20;;;;;;5055062;28;20498;-70
2022/06/15 07:18:57;;;;;;;5.18;2.10;;;16.60;56.60;;;;;;5054917;28;20029;-70
2022/06/15 07:21:25;;;;;;;3.33;2.17;;;16.70;56.90;;;;;;5055067;28;20469;-73
2022/06/15 07:23:55;;;;;;;3.67;2.10;;;16.80;56.90;;;;;;5047420;28;20028;-70
2022/06/15 07:26:31;;;;;;;3.42;1.88;;;17.10;57.20;;;;;;5074840;28;20107;-73
2022/06/15 07:28:57;;;;;;;9.52;2.38;;;17.20;55.10;;;;;;5074882;28;20071;-70
2022/06/15 07:31:35;;;;;;;4.13;1.73;;;17.40;55.70;;;;;;5074848;28;20458;-70
2022/06/15 07:34:02;;;;;;;5.38;2.47;;;17.40;55.00;;;;;;5074510;28;20458;-70
2022/06/15 07:36:28;;;;;;;5.07;2.10;;;17.50;56.50;;;;;;5074555;28;20099;-70
2022/06/15 07:38:56;;;;;;;3.92;2.00;;;17.50;55.10;;;;;;5074544;28;20506;-74
2022/06/15 07:41:23;;;;;;;4.20;2.80;;;17.70;55.20;;;;;;5056650;28;20111;-73
2022/06/15 07:43:49;;;;;;;5.35;2.00;;;17.80;54.80;;;;;;5074326;28;20033;-73
2022/06/15 07:46:16;;;;;;;8.25;2.90;;;18.10;55.50;;;;;;5074657;28;20032;-73
2022/06/15 07:51:28;;;;;;;5.30;2.08;;;18.00;54.40;;;;;;5075015;28;20070;-73
2022/06/15 07:53:55;;;;;;;11.25;3.17;;;17.90;54.40;;;;;;5056507;28;20036;-70
2022/06/15 07:56:21;;;;;;;8.02;3.13;;;18.20;55.50;;;;;;5074508;28;20105;-73
2022/06/15 07:58:47;;;;;;;3.22;1.65;;;18.30;54.00;;;;;;5074489;28;20017;-70
2022/06/15 08:01:13;;;;;;;5.63;1.90;;;18.30;53.90;;;;;;5066129;28;20455;-70
2022/06/15 08:03:38;;;;;;;5.10;2.17;;;18.50;53.60;;;;;;5036318;28;20470;-73
2022/06/15 08:06:04;;;;;;;4.07;2.15;;;18.30;53.30;;;;;;5054146;28;20049;-73
2022/06/15 08:08:31;;;;;;;5.43;2.28;;;18.30;54.40;;;;;;5054435;28;20064;-73
2022/06/15 08:10:56;;;;;;;3.67;2.13;;;18.40;55.00;;;;;;5054356;28;20033;-70
2022/06/15 08:13:22;;;;;;;4.72;2.40;;;18.60;53.90;;;;;;5054292;28;20048;-74
2022/06/15 08:15:50;;;;;;;4.00;2.03;;;18.90;53.70;;;;;;5036418;28;20090;-73
2022/06/15 08:18:19;;;;;;;5.97;2.03;;;19.30;54.50;;;;;;5054126;28;20025;-70
2022/06/15 08:20:46;;;;;;;3.08;2.33;;;19.60;52.90;;;;;;5053599;28;20465;-70
2022/06/15 08:23:16;;;;;;;3.75;2.22;;;19.10;52.10;;;;;;5059749;28;20074;-70
2022/06/15 08:25:46;;;;;;;6.20;1.90;;;19.10;52.10;;;;;;5073965;28;20033;-70
2022/06/15 08:28:14;;;;;;;4.05;1.90;;;19.40;52.30;;;;;;5074140;28;20063;-70
2022/06/15 08:30:39;;;;;;;4.32;1.95;;;19.30;51.70;;;;;;5073823;28;20440;-70
2022/06/15 08:33:08;;;;;;;2.33;1.38;;;19.30;53.90;;;;;;5073836;28;20021;-70
2022/06/15 08:35:36;;;;;;;1.60;1.25;;;19.30;53.70;;;;;;5055749;28;20020;-70
2022/06/15 08:38:06;;;;;;;4.22;2.35;;;19.50;51.80;;;;;;5073887;28;20095;-74
2022/06/15 08:40:43;;;;;;;5.60;1.95;;;19.70;52.80;;;;;;5073801;28;20378;-73
2022/06/15 08:43:28;;;;;;;2.70;1.27;;;19.70;50.60;;;;;;5055957;28;20131;-74
2022/06/15 08:46:01;;;;;;;4.38;1.60;;;19.70;51.30;;;;;;5073679;28;20546;-70
2022/06/15 08:48:32;;;;;;;1.60;1.30;;;19.80;50.50;;;;;;5073530;28;20021;-70
2022/06/15 08:51:48;;;;;;;4.15;2.60;;;19.40;50.70;;;;;;5073351;28;20098;-70
2022/06/15 08:54:20;;;;;;;3.72;1.77;;;19.50;53.00;;;;;;5028612;28;20540;-73
2022/06/15 08:56:55;;;;;;;2.22;1.67;;;19.20;52.40;;;;;;5055535;28;20025;-73
2022/06/15 08:59:56;;;;;;;3.08;1.90;;;19.20;52.40;;;;;;5073420;28;20114;-71
2022/06/15 09:02:55;;;;;;;2.80;1.35;;;19.30;52.80;;;;;;4988540;28;20164;-70
2022/06/15 09:05:29;;;;;;;6.15;1.70;;;19.80;53.10;;;;;;5053031;28;20057;-70
2022/06/15 09:08:24;;;;;;;1.35;1.25;;;19.90;51.00;;;;;;5072105;28;20020;-70
2022/06/15 09:11:25;;;;;;;2.85;1.30;;;20.30;51.20;;;;;;5055252;28;20025;-70
2022/06/15 09:14:12;;;;;;;4.40;1.65;;;20.60;51.20;;;;;;5060521;28;20032;-73
2022/06/15 09:16:40;;;;;;;3.83;1.58;;;20.70;49.90;;;;;;5055234;28;20033;-73
2022/06/15 09:19:14;;;;;;;3.55;1.65;;;20.40;49.00;;;;;;5073378;28;20488;-71
2022/06/15 09:21:41;;;;;;;3.88;1.70;;;20.10;49.90;;;;;;5055168;28;20048;-70
2022/06/15 09:24:27;;;;;;;2.63;1.20;;;19.90;49.10;;;;;;5059430;28;20029;-70
2022/06/15 09:26:56;;;;;;;4.00;1.52;;;20.00;49.20;;;;;;5052250;28;20482;-71
2022/06/15 09:29:41;;;;;;;3.17;1.27;;;19.90;50.20;;;;;;5035096;28;20053;-73
2022/06/15 09:32:20;;;;;;;2.75;1.70;;;19.70;49.80;;;;;;5054986;28;20490;-70
2022/06/15 09:34:59;;;;;;;3.13;1.70;;;19.70;51.00;;;;;;5057215;28;20032;-74
2022/06/15 09:37:28;;;;;;;4.38;1.80;;;19.80;52.00;;;;;;5057428;28;20025;-70
2022/06/15 09:39:54;;;;;;;3.42;1.95;;;19.80;50.70;;;;;;5039164;28;20029;-74
2022/06/15 09:42:46;;;;;;;2.67;1.77;;;19.90;52.20;;;;;;5057222;28;20021;-71
2022/06/15 09:45:35;;;;;;;4.22;1.98;;;19.90;50.60;;;;;;5052319;28;20108;-73
2022/06/15 09:48:41;;;;;;;6.57;2.35;;;19.90;51.70;;;;;;5057101;28;20053;-70
2022/06/15 09:51:21;;;;;;;2.72;1.52;;;20.40;51.10;;;;;;5007961;28;20060;-74
2022/06/15 09:54:12;;;;;;;1.50;1.40;;;20.30;51.40;;;;;;5057073;28;20017;-70
2022/06/15 09:56:39;;;;;;;3.08;2.03;;;20.10;49.90;;;;;;5056778;28;20158;-70
2022/06/15 09:59:14;;;;;;;5.72;1.60;;;20.10;49.70;;;;;;5056749;28;20079;-73
2022/06/15 10:01:42;;;;;;;3.70;1.52;;;20.10;48.60;;;;;;5069499;28;20098;-73
2022/06/15 10:04:26;;;;;;;3.97;1.30;;;20.20;48.20;;;;;;5076445;28;20033;-70
2022/06/15 10:07:25;;;;;;;5.40;1.50;;;20.10;48.40;;;;;;5076525;28;20109;-74
2022/06/15 10:09:54;;;;;;;4.65;2.05;;;20.60;50.80;;;;;;5076544;28;20016;-70
2022/06/15 10:15:19;;;;;;;6.97;1.65;;;20.80;49.90;;;;;;5076730;28;20040;-74
2022/06/15 10:17:52;;;;;;;1.88;1.38;;;20.40;48.40;;;;;;5076318;28;20020;-71
2022/06/15 10:20:30;;;;;;;3.08;1.60;;;20.30;48.40;;;;;;5076293;28;20550;-70
2022/06/15 10:22:58;;;;;;;2.00;1.38;;;20.20;47.50;;;;;;5072210;28;20062;-74
2022/06/15 10:25:27;;;;;;;3.88;1.50;;;20.20;49.60;;;;;;5056149;28;20483;-74
2022/06/15 10:28:14;;;;;;;5.63;1.80;;;20.20;50.00;;;;;;5056293;28;20036;-70
2022/06/15 10:30:51;;;;;;;2.88;1.85;;;20.30;48.70;;;;;;5038301;28;20074;-70
2022/06/15 10:33:19;;;;;;;1.60;1.50;;;20.10;48.90;;;;;;5056235;28;20052;-70
2022/06/15 10:35:57;;;;;;;5.00;1.75;;;20.10;50.50;;;;;;5055961;28;20021;-73
2022/06/15 10:38:23;;;;;;;4.97;2.08;;;20.00;50.90;;;;;;5055973;28;20409;-70
2022/06/15 10:41:45;;;;;;;4.97;1.83;;;19.60;50.60;;;;;;5038069;28;20025;-74
2022/06/15 10:43:49;;;;;;;4.28;1.90;;;19.70;50.90;;;;;;5055308;28;20029;-74
2022/06/15 10:46:16;;;;;;;4.22;1.70;;;19.60;49.70;;;;;;5055721;28;20029;-73
2022/06/15 10:48:57;;;;;;;2.45;1.63;;;19.90;51.60;;;;;;5055810;28;20047;-73
2022/06/15 10:51:36;;;;;;;2.35;1.70;;;20.00;50.40;;;;;;5056030;28;20538;-71
2022/06/15 10:54:21;;;;;;;3.08;2.35;;;20.50;50.70;;;;;;5038017;28;20486;-71
2022/06/15 11:02:29;;;;;;;3.88;2.17;;;20.90;48.60;;;;;;5075054;28;20039;-70
2022/06/15 11:05:18;;;;;;;4.68;1.80;;;21.30;46.90;;;;;;5057448;28;20048;-71
2022/06/15 11:07:59;;;;;;;3.33;2.00;;;21.40;47.10;;;;;;5057462;28;20025;-70
2022/06/15 11:10:38;;;;;;;3.45;1.67;;;21.80;48.40;;;;;;5057529;28;20523;-70
2022/06/15 11:13:30;;;;;;;3.03;1.85;;;22.20;50.60;;;;;;5057499;28;20025;-74
2022/06/15 11:18:44;;;;;;;2.53;1.88;;;22.80;48.10;;;;;;5075501;28;20404;-70
2022/06/15 11:21:22;;;;;;;5.63;1.98;;;22.90;46.60;;;;;;5075260;28;20458;-71
2022/06/15 11:23:56;;;;;;;3.40;2.20;;;23.00;46.80;;;;;;5063695;28;20021;-70
2022/06/15 11:26:59;;;;;;;2.75;1.70;;;22.90;46.20;;;;;;5055203;28;20035;-70
2022/06/15 11:29:33;;;;;;;5.55;2.22;;;22.80;46.10;;;;;;5052047;28;20033;-70
2022/06/15 11:32:24;;;;;;;5.15;2.10;;;22.80;46.30;;;;;;5054962;28;20059;-73
2022/06/15 11:34:53;;;;;;;3.05;2.10;;;22.60;46.90;;;;;;5044304;28;20043;-71
2022/06/15 11:37:25;;;;;;;4.50;2.42;;;22.50;46.80;;;;;;5054909;28;20118;-74
2022/06/15 11:39:57;;;;;;;4.40;1.98;;;21.80;45.80;;;;;;5058852;28;20039;-70
2022/06/15 11:42:23;;;;;;;7.00;2.33;;;21.50;45.60;;;;;;5055625;28;20070;-70
2022/06/15 11:44:50;;;;;;;7.13;2.10;;;21.80;46.40;;;;;;5072905;28;20067;-71
2022/06/15 11:47:42;;;;;;;5.03;2.25;;;22.10;47.60;;;;;;5073304;28;20056;-70
2022/06/15 11:50:32;;;;;;;5.10;2.10;;;22.50;47.50;;;;;;5073174;28;20064;-70
2022/06/15 11:53:12;;;;;;;5.18;2.15;;;22.40;45.90;;;;;;5072636;28;20024;-70
2022/06/15 11:56:00;;;;;;;3.75;1.83;;;22.80;44.40;;;;;;5065944;28;20600;-71
2022/06/15 11:58:26;;;;;;;4.03;2.08;;;22.80;43.20;;;;;;5067746;28;20038;-71
2022/06/15 12:01:10;;;;;;;4.10;1.80;;;22.80;44.10;;;;;;5065678;28;20044;-71
2022/06/15 12:04:04;;;;;;;4.85;2.28;;;23.00;44.80;;;;;;5051452;28;20028;-70
2022/06/15 12:07:04;;;;;;;6.05;2.17;;;23.20;45.40;;;;;;5062008;28;20045;-71
2022/06/15 12:09:46;;;;;;;4.05;2.20;;;23.50;46.60;;;;;;5019835;28;20040;-71
2022/06/15 12:15:06;;;;;;;6.05;2.90;;;23.80;45.30;;;;;;5063434;28;20108;-71
2022/06/15 12:17:34;;;;;;;4.78;2.63;;;23.20;42.70;;;;;;5067292;28;20478;-71
2022/06/15 12:20:14;;;;;;;5.63;2.78;;;23.20;44.00;;;;;;5072518;28;20040;-71
2022/06/15 12:22:48;;;;;;;5.45;2.17;;;23.00;43.50;;;;;;5069984;28;20078;-75
2022/06/15 12:25:32;;;;;;;5.20;2.60;;;22.70;44.20;;;;;;5069451;28;20044;-70
2022/06/15 12:28:25;;;;;;;5.07;2.35;;;22.50;45.40;;;;;;5072716;28;20051;-71
2022/06/15 12:31:01;;;;;;;6.00;2.25;;;22.10;45.50;;;;;;5062558;28;20032;-70
2022/06/15 12:33:43;;;;;;;4.80;2.60;;;22.20;44.40;;;;;;5072881;28;20550;-74
2022/06/15 12:36:44;;;;;;;6.85;2.40;;;22.40;43.50;;;;;;5072175;28;20043;-71
2022/06/15 12:39:19;;;;;;;6.30;2.85;;;22.40;46.10;;;;;;5053839;28;20381;-71
2022/06/15 12:45:12;;;;;;;4.75;2.53;;;22.50;45.80;;;;;;5072455;28;20070;-74
2022/06/15 12:47:40;;;;;;;6.43;2.58;;;22.60;44.40;;;;;;5072599;28;20073;-74
2022/06/15 12:50:53;;;;;;;4.03;2.40;;;23.00;44.90;;;;;;5072311;28;20108;-71
2022/06/15 12:53:35;;;;;;;5.80;2.30;;;23.10;45.00;;;;;;4990122;28;20061;-74
2022/06/15 12:56:12;;;;;;;5.97;2.25;;;23.20;46.20;;;;;;4990769;28;20033;-71
2022/06/15 12:58:56;;;;;;;4.13;2.00;;;22.60;45.00;;;;;;5047368;28;20433;-71
2022/06/15 13:01:25;;;;;;;3.30;2.13;;;22.60;45.40;;;;;;5047840;28;20056;-71
2022/06/15 13:04:12;;;;;;;6.15;2.33;;;22.50;45.20;;;;;;5054225;28;20032;-70
2022/06/15 13:06:40;;;;;;;5.93;2.63;;;22.60;45.80;;;;;;5072038;28;20136;-70
2022/06/15 13:09:20;;;;;;;3.92;2.15;;;22.70;46.40;;;;;;5071309;28;20052;-74
2022/06/15 13:12:05;;;;;;;5.88;2.72;;;22.60;45.80;;;;;;5072142;28;20052;-71
2022/06/15 13:14:58;;;;;;;9.43;2.67;;;22.20;45.50;;;;;;5054100;28;20104;-70
2022/06/15 13:17:28;;;;;;;6.15;2.42;;;22.50;45.80;;;;;;5068675;28;20051;-70
2022/06/15 13:20:06;;;;;;;3.40;2.42;;;22.70;45.90;;;;;;5071639;28;20020;-70
2022/06/15 13:22:40;;;;;;;5.13;2.55;;;23.00;46.10;;;;;;5069965;28;20020;-75
2022/06/15 13:25:16;;;;;;;4.10;2.22;;;23.00;44.40;;;;;;5043738;28;20036;-75
2022/06/15 13:28:08;;;;;;;6.72;2.83;;;23.10;44.20;;;;;;5058118;28;20104;-75
2022/06/15 13:30:53;;;;;;;3.55;2.47;;;23.00;43.50;;;;;;5051590;28;20033;-75
2022/06/15 13:33:20;;;;;;;5.78;2.60;;;23.30;45.20;;;;;;5062630;28;20028;-75
2022/06/15 13:36:10;;;;;;;4.63;2.20;;;23.30;45.50;;;;;;5039516;28;20037;-70
2022/06/15 13:38:37;;;;;;;6.38;2.83;;;23.60;45.40;;;;;;5059117;28;20020;-70
2022/06/15 13:41:13;;;;;;;8.43;5.70;;;23.80;43.60;;;;;;5052842;28;20043;-71